Time;durP1;ratioP1;P1;durP2;ratioP2;P2;SDS_P1;SDS_P2;PMS_P1;PMS_P2;Temp;Humidity;BMP_temperature;BMP_pressure;BME280_temperature;BME280_humidity;BME280_pressure;Samples;Min_cycle;Max_cycle;Signal;HPM_P1;HPM_P2
2023/10/06 00:03:10;;;;;;;12.18;4.07;;;14.90;99.90;;;;;;5135252;27;20051;-73
2023/10/06 00:05:40;;;;;;;7.43;3.50;;;14.90;99.90;;;;;;5136317;27;20540;-73
2023/10/06 00:08:11;;;;;;;10.52;4.07;;;14.90;99.90;;;;;;5135653;27;20043;-73
2023/10/06 00:10:44;;;;;;;12.93;3.67;;;14.90;99.90;;;;;;5134985;27;20046;-73
2023/10/06 00:13:31;;;;;;;9.70;4.10;;;14.90;99.90;;;;;;5135874;27;20477;-73
2023/10/06 00:16:05;;;;;;;9.20;3.72;;;14.90;99.90;;;;;;5135121;27;20046;-74
2023/10/06 00:18:35;;;;;;;10.73;3.90;;;14.90;99.90;;;;;;5136068;27;20039;-73
2023/10/06 00:21:15;;;;;;;10.88;4.05;;;14.90;99.90;;;;;;5154290;27;20430;-74
2023/10/06 00:23:43;;;;;;;9.02;4.13;;;15.00;99.90;;;;;;5134987;27;20058;-74
2023/10/06 00:26:15;;;;;;;11.65;4.18;;;14.90;99.90;;;;;;5135702;27;20147;-73
2023/10/06 00:28:47;;;;;;;13.05;4.10;;;14.90;99.90;;;;;;5135987;27;20042;-73
2023/10/06 00:31:13;;;;;;;12.50;4.40;;;14.90;99.90;;;;;;5135142;27;20042;-73
2023/10/06 00:33:42;;;;;;;8.88;3.83;;;14.90;99.90;;;;;;5135974;27;20524;-73
2023/10/06 00:36:13;;;;;;;9.68;3.92;;;14.90;99.90;;;;;;5135845;27;20042;-73
2023/10/06 00:38:50;;;;;;;13.05;4.60;;;14.90;99.90;;;;;;5135131;27;20042;-73
2023/10/06 00:41:17;;;;;;;10.57;3.78;;;14.90;99.90;;;;;;5135834;27;20091;-73
2023/10/06 00:43:43;;;;;;;9.75;3.70;;;14.90;99.90;;;;;;5135303;27;20038;-73
2023/10/06 00:46:18;;;;;;;10.20;3.53;;;15.00;99.90;;;;;;5134895;27;20500;-73
2023/10/06 00:48:53;;;;;;;8.60;3.88;;;15.00;99.90;;;;;;5135504;27;20505;-73
2023/10/06 00:51:19;;;;;;;13.27;3.83;;;15.00;99.90;;;;;;5135241;27;20489;-73
2023/10/06 00:53:51;;;;;;;12.15;3.83;;;15.00;99.90;;;;;;5135969;27;20386;-73
2023/10/06 00:56:18;;;;;;;10.02;3.63;;;15.00;99.90;;;;;;5135433;27;20047;-73
2023/10/06 00:58:44;;;;;;;9.45;3.97;;;15.00;99.90;;;;;;5134797;27;20047;-73
2023/10/06 01:01:13;;;;;;;11.20;3.50;;;15.00;99.90;;;;;;5153580;27;20059;-73
2023/10/06 01:04:00;;;;;;;9.45;3.78;;;15.10;99.90;;;;;;5135560;27;20509;-74
2023/10/06 01:06:33;;;;;;;8.05;3.60;;;15.10;99.90;;;;;;5134838;27;20042;-74
2023/10/06 01:09:14;;;;;;;9.63;3.70;;;15.10;99.90;;;;;;5135081;27;20038;-73
2023/10/06 01:11:42;;;;;;;10.95;3.67;;;15.10;99.90;;;;;;5135444;27;20047;-73
2023/10/06 01:14:11;;;;;;;9.68;4.00;;;15.20;99.90;;;;;;5134425;27;20038;-73
2023/10/06 01:16:37;;;;;;;10.82;4.70;;;15.10;99.90;;;;;;5135156;27;20035;-73
2023/10/06 01:21:48;;;;;;;12.13;4.18;;;14.90;99.90;;;;;;5135558;27;20051;-73
2023/10/06 01:24:24;;;;;;;9.25;3.63;;;15.00;99.90;;;;;;5118687;27;20520;-73
2023/10/06 01:26:59;;;;;;;10.73;4.05;;;15.10;99.90;;;;;;5117749;27;20082;-73
2023/10/06 01:29:29;;;;;;;8.30;4.18;;;15.10;99.90;;;;;;5117719;27;20130;-73
2023/10/06 01:31:55;;;;;;;11.23;4.43;;;15.10;99.90;;;;;;5129552;27;20381;-73
2023/10/06 01:34:21;;;;;;;9.48;3.65;;;15.10;99.90;;;;;;5138384;27;20131;-73
2023/10/06 01:36:52;;;;;;;10.18;4.22;;;15.10;99.90;;;;;;5139039;27;20043;-73
2023/10/06 01:39:26;;;;;;;9.88;4.13;;;15.00;99.90;;;;;;5138732;27;20479;-73
2023/10/06 01:41:52;;;;;;;13.50;3.63;;;15.10;99.90;;;;;;5156783;27;20448;-73
2023/10/06 01:44:17;;;;;;;13.05;4.10;;;15.00;99.90;;;;;;5138979;27;20121;-73
2023/10/06 01:46:54;;;;;;;13.20;4.38;;;15.00;99.90;;;;;;5138947;27;20046;-73
2023/10/06 01:49:23;;;;;;;8.73;3.72;;;14.90;99.90;;;;;;5156414;27;20043;-73
2023/10/06 01:51:53;;;;;;;13.43;4.63;;;14.90;99.90;;;;;;5138605;27;20035;-73
2023/10/06 01:54:25;;;;;;;9.88;3.80;;;14.90;99.90;;;;;;5138354;27;20090;-73
2023/10/06 01:56:53;;;;;;;11.02;4.03;;;15.00;99.90;;;;;;5137997;27;20095;-73
2023/10/06 01:59:20;;;;;;;12.70;4.57;;;14.90;99.90;;;;;;5138526;27;20061;-73
2023/10/06 02:01:46;;;;;;;11.18;4.28;;;15.00;99.90;;;;;;5138021;27;20070;-74
2023/10/06 02:04:14;;;;;;;15.80;4.20;;;14.90;99.90;;;;;;5138470;27;20046;-73
2023/10/06 02:06:48;;;;;;;8.05;3.70;;;14.80;99.90;;;;;;5138175;27;20148;-73
2023/10/06 02:09:15;;;;;;;8.73;3.67;;;14.80;99.90;;;;;;5137731;27;20046;-73
2023/10/06 02:11:45;;;;;;;10.35;3.47;;;14.80;99.90;;;;;;5138685;27;20050;-73
2023/10/06 02:14:17;;;;;;;14.57;4.13;;;14.80;99.90;;;;;;5138486;27;20478;-73
2023/10/06 02:16:46;;;;;;;10.40;3.80;;;14.80;99.90;;;;;;5137790;27;20069;-73
2023/10/06 02:19:16;;;;;;;12.50;3.33;;;14.70;99.90;;;;;;5138471;27;20030;-74
2023/10/06 02:21:54;;;;;;;12.70;3.65;;;14.70;99.90;;;;;;5138347;27;20095;-73
2023/10/06 02:24:20;;;;;;;10.85;3.42;;;14.80;99.90;;;;;;5137606;27;20043;-73
2023/10/06 02:27:09;;;;;;;10.05;3.00;;;14.70;99.90;;;;;;5137661;27;20039;-73
2023/10/06 02:29:32;;;;;;;12.40;3.28;;;14.70;99.90;;;;;;5137191;27;20114;-73
2023/10/06 02:32:01;;;;;;;8.65;3.15;;;14.80;99.90;;;;;;5137467;27;20473;-73
2023/10/06 02:34:35;;;;;;;12.40;3.38;;;14.80;99.90;;;;;;5138355;27;20429;-73
2023/10/06 02:37:01;;;;;;;11.10;2.90;;;14.80;99.90;;;;;;5137089;27;20145;-73
2023/10/06 02:39:33;;;;;;;13.38;3.90;;;14.80;99.90;;;;;;5138033;27;20039;-73
2023/10/06 02:42:07;;;;;;;11.30;3.33;;;14.70;99.90;;;;;;5137672;27;20133;-73
2023/10/06 02:44:37;;;;;;;13.18;4.25;;;14.70;99.90;;;;;;5137279;27;20042;-73
2023/10/06 02:47:04;;;;;;;10.80;2.88;;;14.70;99.90;;;;;;5136986;27;20032;-72
2023/10/06 02:49:35;;;;;;;8.38;3.38;;;14.70;99.90;;;;;;5138014;27;20042;-73
2023/10/06 02:52:20;;;;;;;13.52;3.17;;;14.80;99.90;;;;;;5155626;27;20047;-73
2023/10/06 02:54:58;;;;;;;8.50;2.80;;;14.80;99.90;;;;;;5138056;27;20038;-73
2023/10/06 02:57:25;;;;;;;11.05;3.85;;;14.90;99.90;;;;;;5136946;27;20035;-73
2023/10/06 02:59:56;;;;;;;15.27;2.97;;;14.90;99.90;;;;;;5136684;27;20129;-73
2023/10/06 03:02:25;;;;;;;8.43;3.00;;;14.90;99.90;;;;;;5156107;27;20497;-73
2023/10/06 03:04:59;;;;;;;10.10;2.97;;;14.90;99.90;;;;;;5136395;27;20085;-73
2023/10/06 03:07:28;;;;;;;6.97;2.75;;;14.90;99.90;;;;;;5137354;27;20043;-73
2023/10/06 03:09:54;;;;;;;11.75;3.47;;;15.10;99.90;;;;;;5137169;27;20072;-73
2023/10/06 03:14:53;;;;;;;10.93;2.70;;;15.00;99.90;;;;;;5137299;27;20047;-73
2023/10/06 03:17:20;;;;;;;13.10;2.92;;;15.00;99.90;;;;;;5136768;27;20081;-74
2023/10/06 03:19:56;;;;;;;10.35;3.05;;;15.20;99.90;;;;;;5136195;27;20549;-73
2023/10/06 03:22:23;;;;;;;11.27;3.47;;;15.10;99.90;;;;;;5136955;27;20075;-73
2023/10/06 03:25:22;;;;;;;10.05;3.35;;;15.10;99.90;;;;;;5136795;27;20054;-73
2023/10/06 03:27:41;;;;;;;11.93;3.13;;;15.20;99.90;;;;;;5133419;27;20490;-73
2023/10/06 03:30:11;;;;;;;13.45;3.10;;;15.20;99.90;;;;;;5155523;27;20888;-73
2023/10/06 03:32:40;;;;;;;9.57;2.80;;;15.10;99.90;;;;;;5136153;27;20050;-73
2023/10/06 03:35:21;;;;;;;12.98;3.03;;;15.10;99.90;;;;;;5136611;27;20470;-73
2023/10/06 03:37:56;;;;;;;10.60;2.78;;;15.20;99.90;;;;;;5155283;27;20069;-73
2023/10/06 03:43:13;;;;;;;12.23;3.00;;;15.20;99.90;;;;;;5104387;27;20142;-73
2023/10/06 03:45:43;;;;;;;12.88;3.42;;;15.10;99.90;;;;;;5136681;27;20123;-73
2023/10/06 03:48:19;;;;;;;12.93;3.17;;;15.10;99.90;;;;;;5134924;27;20134;-73
2023/10/06 03:50:45;;;;;;;7.93;2.72;;;15.20;99.90;;;;;;5136689;27;20050;-73
2023/10/06 03:53:12;;;;;;;15.55;3.42;;;15.20;99.90;;;;;;5136035;27;20122;-73
2023/10/06 03:55:43;;;;;;;10.27;3.00;;;15.20;99.90;;;;;;5135773;27;20039;-73
2023/10/06 03:58:11;;;;;;;13.18;3.22;;;15.20;99.90;;;;;;5135796;27;20172;-73
2023/10/06 04:00:40;;;;;;;11.80;3.05;;;15.30;99.90;;;;;;5136222;27;20603;-73
2023/10/06 04:03:13;;;;;;;13.80;3.60;;;15.30;99.90;;;;;;5135838;27;20086;-73
2023/10/06 04:05:48;;;;;;;15.18;3.47;;;15.30;99.90;;;;;;5136378;27;20061;-73
2023/10/06 04:08:16;;;;;;;12.82;3.80;;;15.20;99.90;;;;;;5135175;27;20125;-73
2023/10/06 04:10:48;;;;;;;10.15;3.65;;;15.10;99.90;;;;;;5136150;27;20485;-73
2023/10/06 04:13:17;;;;;;;12.50;4.63;;;15.10;99.90;;;;;;5136454;27;20509;-73
2023/10/06 04:15:43;;;;;;;9.38;3.30;;;15.00;99.90;;;;;;5135657;27;20038;-73
2023/10/06 04:18:10;;;;;;;8.70;3.55;;;14.90;99.90;;;;;;5135288;27;20039;-73
2023/10/06 04:20:43;;;;;;;13.07;3.63;;;14.90;99.90;;;;;;5135556;27;20043;-73
2023/10/06 04:23:11;;;;;;;11.25;4.20;;;14.90;99.90;;;;;;5135277;27;20043;-73
2023/10/06 04:25:37;;;;;;;10.32;3.65;;;14.90;99.90;;;;;;5136009;27;20049;-73
2023/10/06 04:28:08;;;;;;;10.25;3.67;;;15.00;99.90;;;;;;5135667;27;20126;-73
2023/10/06 04:30:44;;;;;;;13.18;4.50;;;15.00;99.90;;;;;;5135143;27;20042;-73
2023/10/06 04:33:18;;;;;;;14.90;4.72;;;14.90;99.90;;;;;;5135504;27;20039;-73
2023/10/06 04:38:29;;;;;;;13.98;4.32;;;14.90;99.90;;;;;;5135689;27;20047;-72
2023/10/06 04:40:59;;;;;;;12.38;4.78;;;14.90;99.90;;;;;;5135497;27;20520;-72
2023/10/06 04:43:26;;;;;;;14.38;4.93;;;14.90;99.90;;;;;;5134592;27;20046;-72
2023/10/06 04:45:51;;;;;;;11.40;4.90;;;14.90;99.90;;;;;;5134664;27;20046;-72
2023/10/06 04:48:21;;;;;;;11.55;4.65;;;14.90;99.90;;;;;;5135482;27;20042;-73
2023/10/06 04:50:50;;;;;;;17.40;6.10;;;14.90;99.90;;;;;;5132845;27;20109;-76
2023/10/06 04:53:16;;;;;;;9.70;5.32;;;14.90;99.90;;;;;;5134450;27;20092;-74
2023/10/06 04:55:43;;;;;;;11.10;5.72;;;14.80;99.90;;;;;;5137118;27;20430;-73
2023/10/06 04:58:10;;;;;;;12.82;5.40;;;14.90;99.90;;;;;;5137657;27;20046;-73
2023/10/06 05:00:36;;;;;;;16.92;5.05;;;14.80;99.90;;;;;;5134917;27;20058;-76
2023/10/06 05:03:06;;;;;;;16.55;5.85;;;14.90;99.90;;;;;;5122952;27;20043;-77
2023/10/06 05:05:37;;;;;;;11.00;5.10;;;14.70;99.90;;;;;;5130058;27;20050;-82
2023/10/06 05:08:04;;;;;;;12.02;4.80;;;14.70;99.90;;;;;;5143954;27;20087;-78
2023/10/06 05:10:31;;;;;;;20.00;5.97;;;14.70;99.90;;;;;;5138536;27;20195;-83
2023/10/06 05:12:59;;;;;;;16.58;5.32;;;14.80;99.90;;;;;;5138075;27;20478;-77
2023/10/06 05:15:26;;;;;;;14.98;4.65;;;14.70;99.90;;;;;;5138361;27;20125;-82
2023/10/06 05:17:56;;;;;;;12.15;4.97;;;14.70;99.90;;;;;;5139070;27;20046;-73
2023/10/06 05:20:33;;;;;;;15.30;5.10;;;14.60;99.90;;;;;;5133069;27;20039;-82
2023/10/06 05:23:09;;;;;;;19.33;5.07;;;14.80;99.90;;;;;;5131657;27;20051;-75
2023/10/06 05:25:38;;;;;;;;;;;14.80;99.90;;;;;;5139005;27;20047;-78
2023/10/06 05:28:07;;;;;;;17.55;6.53;;;14.80;99.90;;;;;;5139231;27;19919;-81
2023/10/06 05:30:33;;;;;;;14.23;5.10;;;14.70;99.90;;;;;;5139160;27;20035;-75
2023/10/06 05:33:00;;;;;;;8.15;4.30;;;14.70;99.90;;;;;;5138201;27;20125;-79
2023/10/06 05:35:30;;;;;;;11.38;4.88;;;14.70;99.90;;;;;;5138124;27;20129;-78
2023/10/06 05:37:58;;;;;;;13.10;4.78;;;14.80;99.90;;;;;;5138412;27;20110;-76
2023/10/06 05:40:29;;;;;;;15.15;5.20;;;14.80;99.90;;;;;;5138192;27;20489;-83
2023/10/06 05:42:55;;;;;;;12.43;5.00;;;14.70;99.90;;;;;;5138466;27;20075;-82
2023/10/06 05:45:20;;;;;;;18.02;5.43;;;14.70;99.90;;;;;;5135109;27;20035;-82
2023/10/06 05:47:48;;;;;;;15.35;5.70;;;14.70;99.90;;;;;;5140977;27;20050;-77
2023/10/06 05:50:28;;;;;;;13.50;4.82;;;14.80;99.90;;;;;;5124748;27;20066;-79
2023/10/06 05:53:04;;;;;;;17.25;4.65;;;14.80;99.90;;;;;;5142251;27;20045;-79
2023/10/06 05:55:35;;;;;;;13.90;4.85;;;14.90;99.90;;;;;;5146796;27;20038;-80
2023/10/06 05:58:03;;;;;;;20.63;6.07;;;14.80;99.90;;;;;;5121580;27;20054;-77
2023/10/06 06:00:30;;;;;;;12.13;5.38;;;14.80;99.90;;;;;;5118779;27;20051;-87
2023/10/06 06:02:58;;;;;;;14.48;5.93;;;14.80;99.90;;;;;;5126559;27;20046;-79
2023/10/06 06:05:26;;;;;;;12.88;5.25;;;14.70;99.90;;;;;;5136754;27;20094;-79
2023/10/06 06:07:51;;;;;;;16.30;5.80;;;14.80;99.90;;;;;;5154637;27;20517;-81
2023/10/06 06:10:18;;;;;;;17.38;5.63;;;14.70;99.90;;;;;;5138006;27;20114;-78
2023/10/06 06:12:44;;;;;;;16.20;5.70;;;14.70;99.90;;;;;;5137086;27;20034;-80
2023/10/06 06:15:11;;;;;;;16.85;5.80;;;14.70;99.90;;;;;;5136177;27;20039;-74
2023/10/06 06:17:38;;;;;;;15.02;5.20;;;14.70;99.90;;;;;;5132903;27;20486;-82
2023/10/06 06:20:07;;;;;;;16.75;5.45;;;14.70;99.90;;;;;;5136932;27;20429;-80
2023/10/06 06:22:37;;;;;;;16.25;5.75;;;14.80;99.90;;;;;;5135711;27;20057;-80
2023/10/06 06:25:06;;;;;;;14.30;5.10;;;14.70;99.90;;;;;;5136253;27;20046;-80
2023/10/06 06:27:32;;;;;;;14.55;5.20;;;14.80;99.90;;;;;;5136498;27;20038;-79
2023/10/06 06:29:59;;;;;;;16.98;5.28;;;14.80;99.90;;;;;;5129112;27;20043;-75
2023/10/06 06:32:25;;;;;;;13.77;5.03;;;14.80;99.90;;;;;;5136994;27;20397;-75
2023/10/06 06:34:51;;;;;;;16.88;4.90;;;14.80;99.90;;;;;;5131825;27;20093;-73
2023/10/06 06:37:17;;;;;;;13.60;5.40;;;14.80;99.90;;;;;;5136143;27;20047;-71
2023/10/06 06:39:44;;;;;;;14.05;4.95;;;14.80;99.90;;;;;;5137312;27;20049;-76
2023/10/06 06:42:14;;;;;;;14.00;4.63;;;14.90;99.90;;;;;;5130288;27;20153;-74
2023/10/06 06:44:39;;;;;;;19.10;5.20;;;15.10;99.90;;;;;;5132023;27;20049;-74
2023/10/06 06:47:11;;;;;;;19.60;4.88;;;14.90;99.90;;;;;;5136900;27;20062;-84
2023/10/06 06:49:37;;;;;;;16.83;4.95;;;15.00;99.90;;;;;;5136583;27;20139;-73
2023/10/06 06:52:05;;;;;;;12.65;4.72;;;15.10;99.90;;;;;;5135590;27;20125;-73
2023/10/06 06:54:36;;;;;;;16.95;5.00;;;15.00;99.90;;;;;;5153772;27;20047;-74
2023/10/06 06:57:02;;;;;;;12.98;4.57;;;15.10;99.90;;;;;;5135168;27;20043;-74
2023/10/06 06:59:30;;;;;;;11.35;4.78;;;15.20;99.90;;;;;;5136568;27;20049;-74
2023/10/06 07:01:58;;;;;;;16.92;5.15;;;15.20;99.90;;;;;;5155913;27;20083;-73
2023/10/06 07:04:26;;;;;;;14.05;5.05;;;15.20;99.90;;;;;;5155322;27;20086;-73
2023/10/06 07:06:52;;;;;;;17.35;4.55;;;15.10;99.90;;;;;;5135338;27;20118;-73
2023/10/06 07:09:18;;;;;;;16.13;5.00;;;15.10;99.90;;;;;;5134812;27;20124;-73
2023/10/06 07:11:44;;;;;;;20.15;5.05;;;15.10;99.90;;;;;;5134698;27;20490;-73
2023/10/06 07:14:16;;;;;;;15.02;4.50;;;15.10;99.90;;;;;;5134799;27;20094;-73
2023/10/06 07:16:43;;;;;;;15.65;5.50;;;15.10;99.90;;;;;;5135377;27;20553;-73
2023/10/06 07:19:09;;;;;;;13.70;4.90;;;15.10;99.90;;;;;;5133311;27;20039;-73
2023/10/06 07:21:35;;;;;;;14.38;4.68;;;15.10;99.90;;;;;;5154744;27;20485;-74
2023/10/06 07:24:02;;;;;;;13.80;4.47;;;15.10;99.90;;;;;;5136595;27;20042;-73
2023/10/06 07:26:29;;;;;;;11.63;4.72;;;15.20;99.90;;;;;;5136318;27;20051;-74
2023/10/06 07:28:59;;;;;;;14.95;5.03;;;15.20;99.90;;;;;;5136704;27;20049;-74
2023/10/06 07:31:28;;;;;;;15.82;4.93;;;15.40;99.90;;;;;;5136926;27;20043;-74
2023/10/06 07:33:54;;;;;;;18.25;5.10;;;15.40;99.90;;;;;;5135765;27;20156;-74
2023/10/06 07:36:20;;;;;;;14.52;4.82;;;15.60;99.90;;;;;;5136872;27;20050;-74
2023/10/06 07:38:48;;;;;;;21.55;5.43;;;15.70;99.90;;;;;;5136317;27;20058;-75
2023/10/06 07:41:18;;;;;;;17.05;5.05;;;15.80;99.90;;;;;;5136713;27;20050;-74
2023/10/06 07:43:46;;;;;;;14.82;4.90;;;15.90;99.90;;;;;;5155094;27;20035;-74
2023/10/06 07:46:13;;;;;;;12.85;4.38;;;15.90;99.90;;;;;;5135700;27;20039;-74
2023/10/06 07:48:39;;;;;;;9.50;4.00;;;15.90;99.90;;;;;;5136969;27;20443;-74
2023/10/06 07:51:09;;;;;;;14.45;4.55;;;15.90;99.90;;;;;;5136389;27;20047;-74
2023/10/06 07:53:36;;;;;;;14.13;4.20;;;15.90;99.90;;;;;;5135781;27;20041;-74
2023/10/06 07:56:08;;;;;;;15.02;4.95;;;16.10;99.90;;;;;;5136562;27;20058;-74
2023/10/06 07:58:38;;;;;;;18.02;4.38;;;16.10;99.90;;;;;;5135951;27;20031;-74
2023/10/06 08:01:08;;;;;;;24.25;5.13;;;16.20;99.90;;;;;;5135114;27;20062;-75
2023/10/06 08:03:38;;;;;;;14.20;4.70;;;16.60;99.90;;;;;;5136213;27;20053;-75
2023/10/06 08:06:05;;;;;;;12.25;4.95;;;17.10;99.90;;;;;;5135876;27;20111;-74
2023/10/06 08:08:33;;;;;;;12.57;4.25;;;17.50;99.90;;;;;;5135596;27;20047;-75
2023/10/06 08:11:01;;;;;;;14.02;4.72;;;17.70;99.90;;;;;;5136043;27;20046;-75
2023/10/06 08:13:31;;;;;;;14.07;4.80;;;17.80;99.90;;;;;;5136440;27;20516;-75
2023/10/06 08:15:58;;;;;;;15.52;4.25;;;17.60;99.90;;;;;;5135327;27;20074;-75
2023/10/06 08:18:47;;;;;;;13.02;3.95;;;17.60;99.90;;;;;;5154738;27;20103;-74
2023/10/06 08:21:13;;;;;;;14.27;4.32;;;17.40;99.90;;;;;;5138155;27;20413;-74
2023/10/06 08:23:38;;;;;;;15.48;4.40;;;17.20;99.90;;;;;;5154645;27;20049;-74
2023/10/06 08:26:08;;;;;;;15.60;4.60;;;17.20;99.90;;;;;;5154203;27;20042;-75
2023/10/06 08:28:34;;;;;;;10.90;3.95;;;17.10;99.90;;;;;;5134716;27;20474;-74
2023/10/06 08:31:02;;;;;;;14.68;3.50;;;17.10;99.90;;;;;;5153671;27;20054;-74
2023/10/06 08:33:28;;;;;;;20.33;3.88;;;17.20;99.90;;;;;;5143196;27;20035;-75
2023/10/06 08:36:00;;;;;;;12.38;3.20;;;17.20;99.90;;;;;;5126017;27;20375;-78
2023/10/06 08:38:26;;;;;;;12.48;3.45;;;17.30;99.90;;;;;;5124448;27;20043;-80
2023/10/06 08:40:57;;;;;;;16.67;3.80;;;17.40;99.90;;;;;;5134692;27;20039;-83
2023/10/06 08:43:27;;;;;;;13.85;4.00;;;17.40;99.90;;;;;;5133279;27;20137;-78
2023/10/06 08:45:55;;;;;;;16.50;4.03;;;17.60;99.90;;;;;;5115123;28;20070;-83
2023/10/06 08:48:25;;;;;;;11.93;3.10;;;17.70;99.90;;;;;;5114358;27;20132;-79
2023/10/06 08:50:55;;;;;;;16.10;3.60;;;17.90;99.90;;;;;;5120949;27;20153;-75
2023/10/06 08:53:23;;;;;;;12.63;3.92;;;18.00;99.90;;;;;;5120964;27;20441;-79
2023/10/06 08:55:49;;;;;;;13.48;3.10;;;18.00;99.90;;;;;;5134588;27;20130;-77
2023/10/06 08:58:16;;;;;;;13.30;3.70;;;18.30;99.90;;;;;;5134104;27;20129;-80
2023/10/06 09:00:43;;;;;;;12.60;3.63;;;18.50;99.90;;;;;;5134799;27;20387;-79
2023/10/06 09:03:11;;;;;;;11.20;3.60;;;18.60;99.90;;;;;;5134193;27;20394;-81
2023/10/06 09:05:44;;;;;;;21.33;3.97;;;18.70;99.90;;;;;;5124056;28;20043;-76
2023/10/06 09:08:17;;;;;;;12.60;3.47;;;18.80;99.90;;;;;;5128558;27;20042;-76
2023/10/06 09:10:51;;;;;;;12.57;3.38;;;19.00;99.90;;;;;;5133701;27;20061;-83
2023/10/06 09:13:19;;;;;;;12.82;3.40;;;19.20;99.90;;;;;;5135119;27;20043;-82
2023/10/06 09:16:08;;;;;;;10.07;2.90;;;19.20;99.90;;;;;;5135091;27;20049;-81
2023/10/06 09:18:35;;;;;;;13.15;3.25;;;19.30;99.90;;;;;;5133749;27;20049;-79
2023/10/06 09:21:15;;;;;;;12.82;2.90;;;19.50;99.90;;;;;;5134465;27;20054;-78
2023/10/06 09:23:42;;;;;;;13.35;3.58;;;20.00;99.90;;;;;;5134310;27;20091;-78
2023/10/06 09:26:13;;;;;;;12.98;3.78;;;20.40;99.90;;;;;;5133949;27;20486;-79
2023/10/06 09:28:53;;;;;;;13.80;3.78;;;20.70;99.90;;;;;;5153507;27;20125;-79
2023/10/06 09:31:40;;;;;;;15.52;3.65;;;20.60;99.90;;;;;;5130834;28;20521;-81
2023/10/06 09:34:08;;;;;;;12.73;3.03;;;20.40;99.90;;;;;;5141491;27;20054;-82
2023/10/06 09:36:34;;;;;;;16.67;4.10;;;20.20;99.90;;;;;;5135588;27;20070;-80
2023/10/06 09:39:01;;;;;;;16.20;3.50;;;20.00;99.90;;;;;;5134042;27;20082;-80
2023/10/06 09:41:32;;;;;;;11.43;3.15;;;19.80;99.90;;;;;;5136296;27;20047;-80
2023/10/06 09:44:03;;;;;;;14.27;3.45;;;19.80;99.90;;;;;;5138165;27;20478;-80
2023/10/06 09:46:34;;;;;;;13.93;3.60;;;19.50;99.90;;;;;;5137470;27;20047;-83
2023/10/06 09:49:05;;;;;;;12.55;3.72;;;19.50;99.90;;;;;;5138621;27;20558;-77
2023/10/06 09:51:32;;;;;;;14.85;3.25;;;19.60;99.90;;;;;;5139218;27;20093;-78
2023/10/06 09:53:58;;;;;;;16.60;2.92;;;20.00;99.90;;;;;;5138101;27;20034;-77
2023/10/06 09:56:24;;;;;;;13.27;3.33;;;20.50;99.90;;;;;;5157347;27;20539;-82
2023/10/06 09:58:53;;;;;;;14.38;3.30;;;21.10;99.90;;;;;;5138845;27;20513;-82
2023/10/06 10:01:25;;;;;;;14.35;3.55;;;21.90;99.90;;;;;;5137320;27;20109;-87
2023/10/06 10:03:56;;;;;;;13.70;3.20;;;22.20;99.90;;;;;;5137658;27;20090;-78
2023/10/06 10:06:25;;;;;;;15.48;3.22;;;22.30;99.90;;;;;;5138846;27;20435;-77
2023/10/06 10:08:51;;;;;;;14.90;3.10;;;22.30;99.90;;;;;;5132115;27;20056;-81
2023/10/06 10:11:31;;;;;;;11.13;3.45;;;22.40;99.90;;;;;;5121540;27;20039;-82
2023/10/06 10:14:30;;;;;;;16.13;3.38;;;22.20;99.90;;;;;;5116494;27;20079;-87
2023/10/06 10:16:56;;;;;;;12.38;3.33;;;22.40;99.90;;;;;;5132570;27;20051;-82
2023/10/06 10:19:25;;;;;;;12.95;3.20;;;22.30;99.90;;;;;;5135798;27;20050;-81
2023/10/06 10:21:54;;;;;;;12.25;3.20;;;22.00;99.90;;;;;;5132097;27;20042;-80
2023/10/06 10:24:21;;;;;;;14.13;3.55;;;22.30;99.90;;;;;;5152821;27;20524;-86
2023/10/06 10:26:48;;;;;;;14.85;3.55;;;22.10;99.90;;;;;;5136932;27;20061;-80
2023/10/06 10:29:15;;;;;;;15.35;3.65;;;22.20;99.90;;;;;;5136694;27;20050;-80
2023/10/06 10:32:01;;;;;;;14.35;4.13;;;22.00;99.90;;;;;;5137541;27;20054;-79
2023/10/06 10:34:33;;;;;;;11.02;3.08;;;21.90;99.90;;;;;;5138272;27;20133;-81
2023/10/06 10:37:05;;;;;;;12.15;3.30;;;21.70;99.90;;;;;;5144073;27;20038;-77
2023/10/06 10:39:51;;;;;;;11.48;3.25;;;22.00;99.90;;;;;;5139265;27;20043;-82
2023/10/06 10:42:21;;;;;;;10.93;3.20;;;22.80;99.90;;;;;;5137091;27;20385;-83
2023/10/06 10:45:07;;;;;;;14.80;3.35;;;23.10;99.90;;;;;;5155672;27;20658;-80
2023/10/06 10:47:36;;;;;;;13.70;3.25;;;23.70;99.90;;;;;;5135314;27;20046;-78
2023/10/06 10:50:05;;;;;;;13.05;3.10;;;24.20;99.90;;;;;;5153622;27;20133;-78
2023/10/06 10:52:30;;;;;;;13.63;3.10;;;24.30;99.90;;;;;;5135760;27;20073;-78
2023/10/06 10:54:56;;;;;;;13.38;3.33;;;24.40;99.90;;;;;;5131014;27;20074;-79
2023/10/06 10:57:22;;;;;;;11.98;3.42;;;24.10;99.90;;;;;;5133852;27;20075;-80
2023/10/06 11:02:39;;;;;;;14.07;3.10;;;24.10;99.90;;;;;;5117901;27;20092;-74
2023/10/06 11:05:07;;;;;;;13.13;3.72;;;23.50;99.90;;;;;;5136001;27;20043;-78
2023/10/06 11:07:35;;;;;;;13.60;2.92;;;23.30;99.90;;;;;;5137732;27;20081;-79
2023/10/06 11:10:04;;;;;;;12.05;3.60;;;23.60;99.90;;;;;;5136265;27;20038;-81
2023/10/06 11:12:30;;;;;;;13.45;3.70;;;23.90;99.90;;;;;;5155965;27;20046;-82
2023/10/06 11:15:13;;;;;;;15.43;3.25;;;24.10;99.90;;;;;;5136844;27;20072;-82
2023/10/06 11:17:43;;;;;;;12.27;3.38;;;24.50;99.90;;;;;;5135857;27;20081;-82
2023/10/06 11:20:15;;;;;;;17.52;3.83;;;24.90;99.90;;;;;;5134715;27;20103;-81
2023/10/06 11:22:53;;;;;;;11.10;3.50;;;25.10;99.90;;;;;;5134285;27;20122;-81
2023/10/06 11:25:19;;;;;;;9.65;3.17;;;25.30;99.90;;;;;;5134146;27;20043;-81
2023/10/06 11:27:55;;;;;;;13.45;3.65;;;24.80;99.90;;;;;;5134635;27;20042;-81
2023/10/06 11:30:23;;;;;;;13.20;3.60;;;24.70;99.90;;;;;;5134805;27;20050;-80
2023/10/06 11:32:50;;;;;;;14.98;3.65;;;24.70;99.90;;;;;;5133328;27;20038;-80
2023/10/06 11:35:17;;;;;;;13.18;3.17;;;24.40;99.90;;;;;;5136949;27;20042;-80
2023/10/06 11:37:43;;;;;;;11.95;3.03;;;24.30;99.90;;;;;;5137287;27;20043;-80
2023/10/06 11:40:12;;;;;;;12.68;3.47;;;24.30;99.90;;;;;;5135665;27;20050;-81
2023/10/06 11:42:41;;;;;;;15.52;3.22;;;24.70;99.90;;;;;;5136547;27;20099;-80
2023/10/06 11:45:31;;;;;;;10.18;2.78;;;24.90;99.90;;;;;;5135038;27;20058;-80
2023/10/06 11:47:58;;;;;;;11.32;3.28;;;25.10;99.90;;;;;;5136320;27;20063;-81
2023/10/06 11:50:32;;;;;;;10.38;2.95;;;25.00;99.90;;;;;;5136892;27;20046;-81
2023/10/06 11:53:01;;;;;;;11.00;3.10;;;24.80;99.90;;;;;;5135133;27;20177;-81
2023/10/06 11:55:32;;;;;;;14.15;3.20;;;24.70;99.90;;;;;;5136369;27;20048;-80
2023/10/06 11:58:00;;;;;;;10.75;3.20;;;24.30;99.90;;;;;;5136439;27;20093;-79
2023/10/06 12:00:35;;;;;;;11.85;3.58;;;23.40;99.90;;;;;;5135607;27;20502;-75
2023/10/06 12:03:01;;;;;;;15.13;3.50;;;22.80;99.90;;;;;;5136048;27;20474;-76
2023/10/06 12:05:27;;;;;;;12.82;3.03;;;22.40;99.90;;;;;;5135063;27;20083;-74
2023/10/06 12:07:59;;;;;;;13.40;3.10;;;21.90;99.90;;;;;;5135019;27;20043;-74
2023/10/06 12:10:25;;;;;;;12.05;2.70;;;21.60;99.90;;;;;;5136470;27;20047;-77
2023/10/06 12:12:57;;;;;;;17.65;3.58;;;21.40;99.90;;;;;;5135864;27;20050;-77
2023/10/06 12:15:24;;;;;;;14.05;3.40;;;21.00;99.90;;;;;;5135349;27;20087;-77
2023/10/06 12:17:50;;;;;;;13.88;3.50;;;20.70;99.90;;;;;;5135637;27;20050;-77
2023/10/06 12:20:16;;;;;;;14.00;3.33;;;20.60;99.90;;;;;;5152700;27;20409;-78
2023/10/06 12:22:45;;;;;;;16.08;3.60;;;20.40;99.90;;;;;;5136009;27;20390;-77
2023/10/06 12:25:12;;;;;;;14.18;3.75;;;20.30;99.90;;;;;;5154291;27;20061;-78
2023/10/06 12:27:44;;;;;;;16.77;3.53;;;20.10;99.90;;;;;;5135514;27;20488;-77
2023/10/06 12:30:14;;;;;;;15.25;3.42;;;20.00;99.90;;;;;;5153904;27;20497;-76
2023/10/06 12:32:41;;;;;;;14.57;3.35;;;19.80;99.90;;;;;;5136211;27;20047;-76
2023/10/06 12:35:08;;;;;;;15.50;4.05;;;19.80;99.90;;;;;;5136255;27;20403;-76
2023/10/06 12:37:40;;;;;;;16.88;3.88;;;19.90;99.90;;;;;;5135954;27;20512;-76
2023/10/06 12:40:08;;;;;;;13.00;3.63;;;19.80;99.90;;;;;;5134945;27;20054;-76
2023/10/06 12:42:38;;;;;;;14.93;3.65;;;19.80;99.90;;;;;;5134389;27;20510;-71
2023/10/06 12:45:08;;;;;;;16.20;3.42;;;19.70;99.90;;;;;;5135356;27;20042;-75
2023/10/06 12:47:34;;;;;;;17.95;3.58;;;19.60;99.90;;;;;;5135614;27;20045;-75
2023/10/06 12:50:05;;;;;;;12.68;3.70;;;19.70;99.90;;;;;;5134881;27;20046;-75
2023/10/06 12:52:37;;;;;;;18.35;4.18;;;19.50;99.90;;;;;;5153644;27;20046;-76
2023/10/06 12:55:10;;;;;;;14.50;3.50;;;19.40;99.90;;;;;;5154021;27;20122;-76
2023/10/06 12:57:45;;;;;;;14.20;3.28;;;19.50;99.90;;;;;;5134914;27;20053;-76
2023/10/06 13:00:11;;;;;;;15.85;3.38;;;19.50;99.90;;;;;;5152938;27;20043;-75
2023/10/06 13:02:37;;;;;;;16.83;3.42;;;19.50;99.90;;;;;;5134757;27;20042;-72
2023/10/06 13:05:24;;;;;;;12.63;3.55;;;19.40;99.90;;;;;;5129299;27;20562;-83
2023/10/06 13:07:51;;;;;;;15.88;4.35;;;19.40;99.90;;;;;;5115073;27;20055;-77